Time;durP1;ratioP1;P1;durP2;ratioP2;P2;SDS_P1;SDS_P2;PMS_P1;PMS_P2;Temp;Humidity;BMP_temperature;BMP_pressure;BME280_temperature;BME280_humidity;BME280_pressure;Samples;Min_cycle;Max_cycle;Signal;HPM_P1;HPM_P2
2023/05/01 00:00:08;;;;;;;4.70;4.50;;;;;;;;;;4915221;29;20446;-92
2023/05/01 00:02:34;;;;;;;5.10;4.80;;;;;;;;;;4915513;29;20499;-92
2023/05/01 00:05:00;;;;;;;4.90;4.57;;;;;;;;;;4917538;29;20475;-92
2023/05/01 00:07:29;;;;;;;5.40;4.90;;;;;;;;;;4915946;29;20443;-92
2023/05/01 00:09:56;;;;;;;5.10;4.80;;;;;;;;;;4912455;29;20436;-92
2023/05/01 00:12:22;;;;;;;4.77;4.37;;;;;;;;;;4916161;29;20438;-92
2023/05/01 00:14:48;;;;;;;5.63;5.40;;;;;;;;;;4943194;29;20533;-92
2023/05/01 00:17:14;;;;;;;5.43;5.13;;;;;;;;;;4934925;29;20462;-92
2023/05/01 00:19:40;;;;;;;4.33;4.10;;;;;;;;;;4939762;29;20502;-91
2023/05/01 00:22:06;;;;;;;4.60;4.00;;;;;;;;;;4923529;29;20435;-93
2023/05/01 00:24:32;;;;;;;6.40;4.90;;;;;;;;;;4934170;29;20490;-92
2023/05/01 00:26:58;;;;;;;4.70;4.50;;;;;;;;;;4924579;29;20430;-92
2023/05/01 00:29:24;;;;;;;6.03;4.87;;;;;;;;;;4917392;29;20548;-92
2023/05/01 00:31:51;;;;;;;4.53;4.43;;;;;;;;;;4916360;29;20446;-92
2023/05/01 00:34:17;;;;;;;4.77;4.57;;;;;;;;;;4920318;29;20441;-91
2023/05/01 00:36:43;;;;;;;8.03;4.60;;;;;;;;;;4936919;29;20451;-92
2023/05/01 00:39:09;;;;;;;5.10;4.90;;;;;;;;;;4917677;29;20422;-92
2023/05/01 00:41:35;;;;;;;6.43;5.67;;;;;;;;;;4934491;29;20430;-92
2023/05/01 00:44:01;;;;;;;4.87;4.67;;;;;;;;;;4914379;29;20951;-92
2023/05/01 00:46:31;;;;;;;4.80;4.33;;;;;;;;;;4949129;29;20430;-92
2023/05/01 00:48:57;;;;;;;4.97;4.60;;;;;;;;;;4934536;29;20469;-92
2023/05/01 00:51:23;;;;;;;12.43;5.10;;;;;;;;;;4917843;29;20434;-91
2023/05/01 00:53:50;;;;;;;5.53;5.13;;;;;;;;;;4936148;29;20411;-91
2023/05/01 00:56:16;;;;;;;4.90;4.50;;;;;;;;;;4919221;29;20430;-91
2023/05/01 00:58:42;;;;;;;4.93;4.53;;;;;;;;;;4936200;29;20431;-91
2023/05/01 01:01:08;;;;;;;7.20;6.70;;;;;;;;;;4916995;29;20439;-90
2023/05/01 01:03:34;;;;;;;5.13;4.73;;;;;;;;;;4937813;29;20819;-92
2023/05/01 01:06:07;;;;;;;5.70;4.70;;;;;;;;;;4918480;29;20447;-91
2023/05/01 01:08:39;;;;;;;4.70;4.30;;;;;;;;;;4930808;29;20942;-92
2023/05/01 01:11:20;;;;;;;4.60;4.30;;;;;;;;;;4915133;29;20468;-91
2023/05/01 01:13:58;;;;;;;7.10;6.50;;;;;;;;;;4922266;29;20415;-91
2023/05/01 01:16:32;;;;;;;6.38;5.45;;;;;;;;;;4919062;29;20458;-91
2023/05/01 01:19:02;;;;;;;5.40;5.13;;;;;;;;;;4938941;29;20183;-92
2023/05/01 01:21:31;;;;;;;4.57;4.33;;;;;;;;;;4933457;29;20439;-91
2023/05/01 01:24:16;;;;;;;6.03;5.00;;;;;;;;;;4911188;29;20467;-91
2023/05/01 01:26:49;;;;;;;4.47;4.17;;;;;;;;;;4938541;29;20453;-91
2023/05/01 01:29:38;;;;;;;5.73;4.60;;;;;;;;;;4917079;29;21162;-92
2023/05/01 01:32:22;;;;;;;4.67;4.17;;;;;;;;;;4909094;29;20481;-91
2023/05/01 01:34:53;;;;;;;4.07;3.83;;;;;;;;;;4927307;29;20434;-91
2023/05/01 01:37:32;;;;;;;4.53;4.32;;;;;;;;;;4935102;29;20415;-91
2023/05/01 01:40:11;;;;;;;3.87;3.70;;;;;;;;;;4950760;29;20430;-91
2023/05/01 01:42:42;;;;;;;4.10;3.80;;;;;;;;;;4918921;29;20434;-91
2023/05/01 01:45:14;;;;;;;5.07;4.77;;;;;;;;;;4915819;29;20458;-91
2023/05/01 01:47:41;;;;;;;8.30;4.23;;;;;;;;;;4918679;29;20462;-92
2023/05/01 01:50:09;;;;;;;3.63;3.53;;;;;;;;;;4937103;29;20458;-92
2023/05/01 01:52:36;;;;;;;3.77;3.60;;;;;;;;;;4910966;29;20466;-90
2023/05/01 01:55:10;;;;;;;4.77;4.00;;;;;;;;;;4934661;29;20435;-91
2023/05/01 01:57:38;;;;;;;4.03;3.83;;;;;;;;;;4927687;29;20451;-93
2023/05/01 02:00:07;;;;;;;5.50;5.00;;;;;;;;;;4934505;29;20446;-91
2023/05/01 02:02:36;;;;;;;4.80;4.60;;;;;;;;;;4930491;29;20419;-91
2023/05/01 02:05:02;;;;;;;4.97;4.67;;;;;;;;;;4918516;29;20230;-92
2023/05/01 02:07:30;;;;;;;4.00;3.80;;;;;;;;;;4920114;29;20431;-92
2023/05/01 02:09:56;;;;;;;4.93;4.63;;;;;;;;;;4915611;29;20963;-92
2023/05/01 02:12:25;;;;;;;4.20;4.00;;;;;;;;;;4926771;29;20458;-92
2023/05/01 02:14:51;;;;;;;5.25;4.78;;;;;;;;;;4937569;29;20415;-92
2023/05/01 02:17:19;;;;;;;4.57;4.37;;;;;;;;;;4920390;29;20694;-92
2023/05/01 02:19:46;;;;;;;5.00;4.43;;;;;;;;;;4937275;29;20478;-92
2023/05/01 02:22:13;;;;;;;4.40;3.83;;;;;;;;;;4918817;29;20497;-92
2023/05/01 02:24:39;;;;;;;4.43;4.23;;;;;;;;;;4935656;29;20467;-92
2023/05/01 02:27:15;;;;;;;4.70;4.40;;;;;;;;;;4923360;29;20482;-92
2023/05/01 02:29:41;;;;;;;3.90;3.80;;;;;;;;;;4926245;29;20459;-92
2023/05/01 02:32:07;;;;;;;5.40;4.20;;;;;;;;;;4918113;29;20654;-92
2023/05/01 02:34:34;;;;;;;4.20;4.00;;;;;;;;;;4920300;29;20443;-93
2023/05/01 02:37:00;;;;;;;4.90;4.40;;;;;;;;;;4937809;29;20455;-93
2023/05/01 02:39:26;;;;;;;5.20;4.40;;;;;;;;;;4956903;29;20508;-93
2023/05/01 02:41:55;;;;;;;4.70;4.40;;;;;;;;;;4922208;29;20439;-92
2023/05/01 02:44:22;;;;;;;5.90;4.80;;;;;;;;;;4926440;29;20491;-92
2023/05/01 02:46:49;;;;;;;5.50;5.00;;;;;;;;;;4932950;29;21146;-92
2023/05/01 02:49:17;;;;;;;6.60;6.03;;;;;;;;;;4960859;29;20501;-92
2023/05/01 02:51:45;;;;;;;4.10;4.00;;;;;;;;;;4921720;29;20431;-92
2023/05/01 02:54:12;;;;;;;5.13;4.87;;;;;;;;;;4921195;29;20423;-91
2023/05/01 02:56:38;;;;;;;4.40;4.23;;;;;;;;;;4927116;29;20560;-92
2023/05/01 02:59:04;;;;;;;4.60;4.40;;;;;;;;;;4928067;29;20419;-91
2023/05/01 03:01:30;;;;;;;5.13;4.37;;;;;;;;;;4935146;29;20442;-91
2023/05/01 03:03:57;;;;;;;15.63;5.33;;;;;;;;;;4945981;29;20862;-92
2023/05/01 03:06:23;;;;;;;5.53;5.23;;;;;;;;;;4925952;29;20852;-91
2023/05/01 03:08:49;;;;;;;5.53;4.20;;;;;;;;;;4927415;29;20463;-91
2023/05/01 03:11:15;;;;;;;4.07;3.97;;;;;;;;;;4922471;29;20458;-91
2023/05/01 03:13:41;;;;;;;4.70;4.17;;;;;;;;;;4919737;29;20427;-91
2023/05/01 03:16:07;;;;;;;4.93;4.63;;;;;;;;;;4938159;29;20427;-91
2023/05/01 03:18:33;;;;;;;4.40;4.17;;;;;;;;;;4926433;29;20538;-92
2023/05/01 03:20:59;;;;;;;5.93;4.73;;;;;;;;;;4923337;29;20467;-91
2023/05/01 03:23:26;;;;;;;5.27;4.17;;;;;;;;;;4923461;29;20462;-91
2023/05/01 03:25:53;;;;;;;4.73;4.43;;;;;;;;;;4922639;29;20435;-91
2023/05/01 03:28:22;;;;;;;5.20;4.80;;;;;;;;;;4925071;29;20538;-92
2023/05/01 03:30:49;;;;;;;4.53;4.20;;;;;;;;;;4926912;29;20485;-92
2023/05/01 03:33:15;;;;;;;6.07;4.00;;;;;;;;;;4921528;29;20496;-91
2023/05/01 03:35:41;;;;;;;4.30;4.10;;;;;;;;;;4936689;29;20438;-91
2023/05/01 03:38:07;;;;;;;4.23;3.93;;;;;;;;;;4919749;29;20542;-90
2023/05/01 03:40:36;;;;;;;5.00;4.80;;;;;;;;;;4921153;29;20533;-91
2023/05/01 03:43:01;;;;;;;4.40;4.30;;;10.80;99.90;;;;;;4918188;29;20498;-92
2023/05/01 03:45:27;;;;;;;4.57;3.97;;;10.70;99.90;;;;;;4939124;29;20447;-91
2023/05/01 03:47:53;;;;;;;7.37;6.83;;;;;;;;;;4922259;29;20568;-91
2023/05/01 03:50:19;;;;;;;7.70;4.27;;;;;;;;;;4935626;29;20199;-91
2023/05/01 03:52:45;;;;;;;4.67;4.17;;;;;;;;;;4932262;29;20462;-92
2023/05/01 03:55:11;;;;;;;4.20;4.00;;;10.50;99.90;;;;;;4923086;29;20467;-92
2023/05/01 03:57:40;;;;;;;7.43;4.47;;;10.40;99.90;;;;;;4920489;29;20458;-92
2023/05/01 04:00:06;;;;;;;5.70;5.27;;;10.40;99.90;;;;;;4929437;29;20258;-94
2023/05/01 04:02:32;;;;;;;4.43;4.13;;;10.40;99.90;;;;;;4922298;29;20538;-92
2023/05/01 04:04:58;;;;;;;4.60;4.20;;;;;;;;;;4930524;29;20490;-91
2023/05/01 04:07:24;;;;;;;4.13;4.03;;;;;;;;;;4936811;29;20210;-92
2023/05/01 04:09:50;;;;;;;5.50;5.20;;;;;;;;;;4936861;29;20517;-91
2023/05/01 04:12:16;;;;;;;4.53;4.40;;;;;;;;;;4938535;29;20458;-90
2023/05/01 04:14:43;;;;;;;5.80;4.10;;;;;;;;;;4920613;29;20438;-92
2023/05/01 04:17:09;;;;;;;5.60;4.47;;;;;;;;;;4939024;29;20454;-91
2023/05/01 04:19:35;;;;;;;5.00;4.70;;;;;;;;;;4939303;29;20450;-92
2023/05/01 04:22:01;;;;;;;5.40;4.20;;;;;;;;;;4920004;29;20447;-91
2023/05/01 04:24:27;;;;;;;5.67;5.30;;;10.10;99.90;;;;;;4919616;29;20896;-92
2023/05/01 04:26:53;;;;;;;4.37;4.27;;;;;;;;;;4921533;29;20437;-91
2023/05/01 04:29:18;;;;;;;5.13;4.83;;;10.10;99.90;;;;;;4921039;29;20933;-92
2023/05/01 04:31:44;;;;;;;4.80;4.70;;;;;;;;;;4929393;29;21077;-92
2023/05/01 04:34:10;;;;;;;5.20;4.80;;;;;;;;;;4923768;29;20191;-92
2023/05/01 04:36:36;;;;;;;4.10;3.83;;;;;;;;;;4934888;29;20526;-91
2023/05/01 04:39:02;;;;;;;5.57;5.17;;;10.40;99.90;;;;;;4921431;29;20438;-92
2023/05/01 04:41:28;;;;;;;5.57;3.80;;;;;;;;;;4929249;29;20954;-92
2023/05/01 04:43:54;;;;;;;5.32;4.93;;;;;;;;;;4941084;29;20429;-91
2023/05/01 04:46:20;;;;;;;4.00;3.80;;;;;;;;;;4935645;29;20275;-92
2023/05/01 04:48:46;;;;;;;7.73;4.20;;;;;;;;;;4923289;29;20915;-92
2023/05/01 04:51:11;;;;;;;8.83;4.20;;;10.60;99.90;;;;;;4941332;29;20440;-91
2023/05/01 04:53:37;;;;;;;3.83;3.73;;;10.40;99.90;;;;;;4924663;29;20438;-91
2023/05/01 04:56:03;;;;;;;6.57;6.03;;;10.60;99.90;;;;;;4939085;29;20270;-91
2023/05/01 04:58:28;;;;;;;4.23;4.13;;;10.50;99.90;;;;;;4942198;29;20206;-91
2023/05/01 05:00:54;;;;;;;4.30;4.10;;;;;;;;;;4912583;29;20191;-91
2023/05/01 05:03:20;;;;;;;4.57;4.23;;;;;;;;;;4920145;29;20235;-92
2023/05/01 05:05:46;;;;;;;3.70;3.50;;;;;;;;;;4921575;29;20512;-91
2023/05/01 05:08:12;;;;;;;3.47;3.30;;;;;;;;;;4922964;29;20452;-92
2023/05/01 05:10:38;;;;;;;6.47;4.27;;;;;;;;;;4927708;29;20443;-92
2023/05/01 05:13:04;;;;;;;4.40;4.00;;;10.70;99.90;;;;;;4925195;29;20437;-91
2023/05/01 05:15:31;;;;;;;3.83;3.53;;;;;;;;;;4929340;29;20474;-91
2023/05/01 05:18:00;;;;;;;4.40;4.28;;;10.80;99.90;;;;;;4934441;29;20408;-91
2023/05/01 05:20:27;;;;;;;4.67;4.37;;;;;;;;;;4920400;29;20553;-90
2023/05/01 05:22:52;;;;;;;4.27;4.10;;;;;;;;;;4945164;29;20403;-91
2023/05/01 05:25:21;;;;;;;6.13;4.40;;;11.20;99.90;;;;;;4925522;29;20485;-92
2023/05/01 05:27:48;;;;;;;4.50;4.20;;;;;;;;;;4927349;29;20411;-91
2023/05/01 05:30:16;;;;;;;4.33;3.93;;;11.30;99.90;;;;;;4929760;29;20288;-91
2023/05/01 05:32:43;;;;;;;3.50;3.30;;;;;;;;;;4949894;29;20497;-92
2023/05/01 05:35:09;;;;;;;4.07;3.77;;;;;;;;;;4927754;29;20454;-92
2023/05/01 05:37:35;;;;;;;4.43;4.10;;;;;;;;;;4930502;29;21194;-92
2023/05/01 05:40:01;;;;;;;4.10;3.80;;;;;;;;;;4929836;29;20443;-91
2023/05/01 05:42:28;;;;;;;4.70;4.47;;;12.20;99.90;;;;;;4939487;29;20480;-92
2023/05/01 05:44:53;;;;;;;3.10;3.07;;;12.10;99.90;;;;;;4930405;29;21160;-92
2023/05/01 05:47:24;;;;;;;6.90;4.10;;;12.10;99.90;;;;;;4937152;29;20453;-92
2023/05/01 05:49:50;;;;;;;3.53;3.43;;;;;;;;;;4930677;29;20430;-93
2023/05/01 05:52:16;;;;;;;3.70;3.60;;;12.60;99.90;;;;;;4928789;29;20455;-90
2023/05/01 05:54:42;;;;;;;3.90;3.70;;;;;;;;;;4929200;29;20503;-92
2023/05/01 05:57:08;;;;;;;4.30;4.17;;;12.10;99.90;;;;;;4925213;29;20847;-92
2023/05/01 05:59:34;;;;;;;5.17;4.77;;;;;;;;;;4934152;29;20446;-92
2023/05/01 06:02:00;;;;;;;4.43;4.07;;;;;;;;;;4937585;29;20426;-92
2023/05/01 06:04:26;;;;;;;5.50;5.27;;;;;;;;;;4943004;29;20502;-92
2023/05/01 06:06:52;;;;;;;8.67;5.53;;;;;;;;;;4930248;29;20432;-91
2023/05/01 06:09:18;;;;;;;4.87;4.57;;;13.30;99.90;;;;;;4926366;29;20741;-92
2023/05/01 06:11:44;;;;;;;4.90;4.53;;;;;;;;;;4950735;29;20445;-92
2023/05/01 06:14:11;;;;;;;5.47;5.00;;;13.60;99.90;;;;;;4932424;29;20427;-92
2023/05/01 06:16:37;;;;;;;6.80;6.10;;;;;;;;;;4928487;29;20442;-92
2023/05/01 06:19:03;;;;;;;6.28;5.68;;;13.70;99.90;;;;;;4933454;29;20430;-92
2023/05/01 06:21:31;;;;;;;6.53;6.03;;;;;;;;;;4921240;29;20195;-92
2023/05/01 06:23:57;;;;;;;7.13;5.03;;;14.00;99.90;;;;;;4930261;29;20199;-92
2023/05/01 06:26:22;;;;;;;5.77;5.40;;;14.30;99.90;;;;;;4921915;29;20451;-92
2023/05/01 06:28:48;;;;;;;5.83;5.43;;;14.40;99.90;;;;;;4924053;29;20235;-92
2023/05/01 06:31:14;;;;;;;5.43;5.10;;;;;;;;;;4913943;29;20218;-92
2023/05/01 06:33:40;;;;;;;4.90;4.60;;;;;;;;;;4925385;29;20446;-92
2023/05/01 06:36:06;;;;;;;5.03;4.82;;;;;;;;;;4919111;29;20435;-93
2023/05/01 06:38:33;;;;;;;4.13;3.93;;;;;;;;;;4918374;29;20261;-92
2023/05/01 06:40:59;;;;;;;5.57;5.30;;;;;;;;;;4921343;29;20479;-92
2023/05/01 06:43:29;;;;;;;4.47;4.27;;;15.40;99.90;;;;;;4925306;29;20203;-91
2023/05/01 06:45:55;;;;;;;4.40;4.20;;;;;;;;;;4922113;29;20436;-92
2023/05/01 06:48:21;;;;;;;4.20;4.00;;;15.50;99.90;;;;;;4921662;29;20465;-92
2023/05/01 06:50:48;;;;;;;4.00;3.90;;;;;;;;;;4920554;29;20538;-93
2023/05/01 06:53:14;;;;;;;5.50;5.20;;;;;;;;;;4922237;29;20804;-92
2023/05/01 06:55:40;;;;;;;5.30;5.00;;;16.00;99.90;;;;;;4921544;29;20249;-91
2023/05/01 06:58:08;;;;;;;3.87;3.67;;;16.10;99.90;;;;;;4940770;29;20496;-92
2023/05/01 07:00:34;;;;;;;4.63;4.43;;;16.30;99.90;;;;;;4919658;29;20435;-92
2023/05/01 07:03:01;;;;;;;5.43;4.90;;;16.40;99.90;;;;;;4921608;29;20442;-92
2023/05/01 07:05:28;;;;;;;3.30;3.10;;;16.60;99.90;;;;;;4916981;29;20192;-93
2023/05/01 07:07:53;;;;;;;2.90;2.80;;;17.00;99.90;;;;;;4918930;29;20447;-93
2023/05/01 07:10:19;;;;;;;3.37;3.17;;;17.20;99.90;;;;;;4919391;29;20992;-93
2023/05/01 07:12:45;;;;;;;3.63;3.30;;;17.80;99.90;;;;;;4937225;29;20183;-91
2023/05/01 07:15:13;;;;;;;2.90;2.80;;;17.30;99.90;;;;;;4922840;29;20187;-93
2023/05/01 07:17:38;;;;;;;3.60;3.20;;;17.80;99.90;;;;;;4917763;29;20439;-91
2023/05/01 07:20:05;;;;;;;2.47;2.37;;;18.10;99.90;;;;;;4920102;29;20427;-92
2023/05/01 07:22:36;;;;;;;2.67;2.50;;;18.60;99.90;;;;;;4916167;29;20763;-91
2023/05/01 07:25:02;;;;;;;2.77;2.67;;;18.50;99.90;;;;;;4926468;29;20521;-91
2023/05/01 07:27:28;;;;;;;2.90;2.67;;;18.20;99.90;;;;;;4914845;29;20443;-92
2023/05/01 07:29:56;;;;;;;2.77;2.67;;;18.60;99.90;;;;;;4900865;29;20543;-93
2023/05/01 07:32:28;;;;;;;3.50;3.30;;;;;;;;;;4917456;29;20486;-92
2023/05/01 07:34:54;;;;;;;2.97;2.87;;;17.50;98.40;;;;;;4921526;29;20447;-93
2023/05/01 07:37:20;;;;;;;3.90;3.03;;;17.80;99.90;;;;;;4914773;29;20482;-92
2023/05/01 07:39:45;;;;;;;5.13;4.77;;;17.50;99.90;;;;;;4936160;23;20442;-75
2023/05/01 07:42:11;;;;;;;3.23;3.03;;;18.40;99.90;;;;;;4977007;28;20194;-75
2023/05/01 07:44:36;;;;;;;2.97;2.73;;;17.40;99.90;;;;;;4961529;28;20756;-75
2023/05/01 07:47:03;;;;;;;3.33;2.83;;;17.80;99.90;;;;;;4947939;28;20244;-76
2023/05/01 07:49:33;;;;;;;4.00;2.60;;;18.20;99.90;;;;;;4957240;28;20250;-75
2023/05/01 07:51:59;;;;;;;3.63;3.47;;;18.00;99.90;;;;;;4955249;28;20721;-75
2023/05/01 07:54:25;;;;;;;2.93;2.67;;;;;;;;;;4945056;29;20446;-75
2023/05/01 07:56:51;;;;;;;2.43;2.43;;;18.50;98.60;;;;;;4953795;28;20524;-76
2023/05/01 07:59:17;;;;;;;2.63;2.53;;;18.70;99.70;;;;;;4963512;28;20441;-75
2023/05/01 08:01:42;;;;;;;3.67;2.70;;;19.40;99.80;;;;;;4952713;28;20621;-76
2023/05/01 08:04:08;;;;;;;2.40;2.30;;;19.70;99.50;;;;;;4951053;28;20620;-76
2023/05/01 08:06:33;;;;;;;2.60;2.50;;;19.40;98.30;;;;;;4960253;28;20199;-76
2023/05/01 08:08:59;;;;;;;2.50;2.50;;;20.50;98.50;;;;;;4957544;28;20296;-75
2023/05/01 08:11:25;;;;;;;2.80;2.70;;;19.80;96.60;;;;;;4957369;28;20205;-78
2023/05/01 08:13:51;;;;;;;2.70;2.70;;;19.80;95.20;;;;;;4957354;28;20204;-77
2023/05/01 08:16:18;;;;;;;5.90;5.13;;;20.30;95.30;;;;;;4958851;28;20562;-78
2023/05/01 08:18:45;;;;;;;3.10;3.10;;;19.90;94.40;;;;;;4942130;28;20201;-77
2023/05/01 08:21:10;;;;;;;2.50;2.40;;;20.30;94.80;;;;;;4955239;28;20445;-75
2023/05/01 08:23:36;;;;;;;2.93;2.60;;;20.50;95.10;;;;;;4960024;28;20817;-75
2023/05/01 08:26:02;;;;;;;3.10;2.90;;;20.30;94.50;;;;;;4933739;28;20685;-75
2023/05/01 08:28:28;;;;;;;2.90;2.80;;;21.00;95.40;;;;;;4952594;28;20453;-75
2023/05/01 08:30:53;;;;;;;3.20;3.10;;;20.60;95.10;;;;;;4942175;29;20202;-77
2023/05/01 08:33:19;;;;;;;2.50;2.50;;;21.20;95.30;;;;;;4937278;28;20281;-76
2023/05/01 08:35:45;;;;;;;2.90;2.70;;;21.10;93.80;;;;;;4943668;28;20210;-74
2023/05/01 08:38:11;;;;;;;2.70;2.67;;;21.40;93.70;;;;;;4960964;29;20239;-76
2023/05/01 08:40:37;;;;;;;2.77;2.60;;;;;;;;;;4949306;28;20231;-75
2023/05/01 08:43:03;;;;;;;2.57;2.57;;;22.20;81.50;;;;;;4947335;29;21252;-76
2023/05/01 08:45:34;;;;;;;3.17;2.70;;;23.10;82.10;;;;;;4947312;28;20511;-77
2023/05/01 08:48:05;;;;;;;3.43;3.30;;;22.80;79.50;;;;;;4946616;28;20281;-77
2023/05/01 08:50:33;;;;;;;2.73;2.60;;;;;;;;;;4934218;28;20446;-76
2023/05/01 08:52:59;;;;;;;2.87;2.67;;;;;;;;;;4939428;28;20949;-75
2023/05/01 08:55:26;;;;;;;4.47;3.53;;;;;;;;;;4941170;28;20611;-77
2023/05/01 08:57:52;;;;;;;3.33;3.03;;;;;;;;;;4943419;29;20442;-77
2023/05/01 09:00:20;;;;;;;3.30;3.00;;;;;;;;;;4938192;28;20537;-77
2023/05/01 09:02:47;;;;;;;2.70;2.50;;;;;;;;;;4941101;28;20423;-76
2023/05/01 09:05:17;;;;;;;3.17;2.83;;;23.80;73.10;;;;;;4937074;29;20490;-75
2023/05/01 09:07:44;;;;;;;2.40;2.33;;;23.80;68.40;;;;;;4935627;29;20494;-76
2023/05/01 09:10:11;;;;;;;2.53;2.53;;;24.10;73.60;;;;;;4931285;28;20472;-76
2023/05/01 09:12:38;;;;;;;3.23;2.80;;;24.50;73.60;;;;;;4930662;29;21674;-76
2023/05/01 09:15:06;;;;;;;2.70;2.70;;;24.10;71.60;;;;;;4933394;28;20509;-76
2023/05/01 09:17:33;;;;;;;2.87;2.77;;;23.90;69.00;;;;;;4941762;29;20492;-76
2023/05/01 09:20:01;;;;;;;2.80;2.70;;;24.00;70.50;;;;;;4935448;29;20458;-76
2023/05/01 09:22:30;;;;;;;2.80;2.70;;;24.00;70.50;;;;;;4942136;28;20461;-75
2023/05/01 09:24:55;;;;;;;2.73;2.73;;;22.80;69.70;;;;;;4940237;29;20814;-75
2023/05/01 09:27:22;;;;;;;2.50;2.40;;;23.80;73.40;;;;;;4948423;29;20453;-75
2023/05/01 09:29:48;;;;;;;2.40;2.40;;;;;;;;;;4944216;28;20202;-75
2023/05/01 09:32:21;;;;;;;2.60;2.60;;;;;;;;;;4942241;29;20830;-75
2023/05/01 09:34:48;;;;;;;2.17;2.10;;;;;;;;;;4945758;29;20452;-75
2023/05/01 09:37:26;;;;;;;2.50;2.50;;;;;;;;;;4925303;28;20435;-74
2023/05/01 09:40:01;;;;;;;2.10;2.10;;;;;;;;;;4947990;28;20449;-80
2023/05/01 09:42:27;;;;;;;4.73;4.43;;;;;;;;;;4949511;28;20421;-75
2023/05/01 09:44:54;;;;;;;3.40;3.20;;;;;;;;;;4947605;28;20482;-75
2023/05/01 09:47:22;;;;;;;2.43;2.30;;;;;;;;;;4946443;28;20438;-80
2023/05/01 09:49:48;;;;;;;2.30;2.30;;;;;;;;;;4939398;29;20502;-75
2023/05/01 09:52:15;;;;;;;3.00;2.97;;;;;;;;;;4944285;29;20968;-75
2023/05/01 09:54:41;;;;;;;2.20;2.20;;;;;;;;;;4940953;29;20504;-76
2023/05/01 09:57:07;;;;;;;1.97;1.97;;;;;;;;;;4943286;28;21162;-76
2023/05/01 09:59:33;;;;;;;4.17;3.97;;;;;;;;;;4948973;28;20453;-77
2023/05/01 10:02:00;;;;;;;2.40;2.30;;;;;;;;;;4946378;28;20430;-77
2023/05/01 10:04:33;;;;;;;2.43;2.33;;;;;;;;;;4940634;29;20482;-77
2023/05/01 10:07:11;;;;;;;2.20;2.20;;;;;;;;;;4940652;29;20430;-77
2023/05/01 10:09:37;;;;;;;2.90;2.70;;;;;;;;;;4944056;28;20484;-77
2023/05/01 10:12:03;;;;;;;2.70;2.13;;;;;;;;;;4937178;28;21077;-77
2023/05/01 10:14:32;;;;;;;2.63;2.43;;;;;;;;;;4947693;28;20438;-77
2023/05/01 10:16:58;;;;;;;2.00;2.00;;;;;;;;;;4939687;28;20454;-77
2023/05/01 10:19:24;;;;;;;2.60;2.60;;;;;;;;;;4945545;29;20454;-77
2023/05/01 10:21:51;;;;;;;3.30;3.20;;;;;;;;;;4947772;28;20449;-77
2023/05/01 10:24:17;;;;;;;2.40;2.30;;;;;;;;;;4939540;28;20474;-76
2023/05/01 10:26:43;;;;;;;3.00;2.80;;;;;;;;;;4941124;29;20457;-76
2023/05/01 10:29:10;;;;;;;1.90;1.80;;;;;;;;;;4945563;28;20469;-75
2023/05/01 10:31:36;;;;;;;2.23;2.23;;;;;;;;;;4945271;28;20461;-75
2023/05/01 10:34:03;;;;;;;2.20;2.20;;;;;;;;;;4947232;28;20423;-76
2023/05/01 10:36:41;;;;;;;2.70;2.60;;;;;;;;;;4944223;29;20454;-75
2023/05/01 10:39:27;;;;;;;3.30;3.20;;;;;;;;;;4947114;28;20438;-76
2023/05/01 10:41:53;;;;;;;2.37;2.33;;;;;;;;;;4949992;28;20455;-77
2023/05/01 10:44:20;;;;;;;2.50;2.37;;;;;;;;;;4963860;28;20488;-75
2023/05/01 10:46:46;;;;;;;2.00;2.00;;;;;;;;;;4969821;28;20472;-76
2023/05/01 10:49:12;;;;;;;2.90;2.80;;;;;;;;;;4960920;28;20437;-75
2023/05/01 10:51:57;;;;;;;1.90;1.90;;;;;;;;;;4951857;28;20434;-75
2023/05/01 10:54:25;;;;;;;2.00;2.00;;;;;;;;;;4938441;28;20771;-76
2023/05/01 10:56:51;;;;;;;2.73;2.63;;;;;;;;;;4946397;28;20473;-76
2023/05/01 10:59:18;;;;;;;3.30;2.70;;;;;;;;;;4944082;29;20427;-75
2023/05/01 11:01:46;;;;;;;2.27;2.17;;;;;;;;;;4944267;28;20443;-76
2023/05/01 11:04:21;;;;;;;2.10;2.10;;;;;;;;;;4950698;28;20573;-75
2023/05/01 11:07:12;;;;;;;2.50;2.40;;;;;;;;;;4945107;28;20773;-77
2023/05/01 11:09:39;;;;;;;3.03;3.00;;;;;;;;;;4939929;28;20430;-76
2023/05/01 11:12:06;;;;;;;6.87;6.23;;;;;;;;;;4935952;28;21005;-76
2023/05/01 11:14:51;;;;;;;2.80;2.70;;;;;;;;;;4947809;28;20450;-76
2023/05/01 11:17:35;;;;;;;2.50;2.40;;;;;;;;;;4937905;28;20929;-76
2023/05/01 11:20:02;;;;;;;2.87;2.73;;;;;;;;;;4948090;28;20429;-77
2023/05/01 11:22:29;;;;;;;2.93;2.70;;;;;;;;;;4952176;28;20440;-77
2023/05/01 11:24:55;;;;;;;2.50;2.40;;;;;;;;;;4943521;28;20465;-76
2023/05/01 11:27:22;;;;;;;3.17;3.07;;;;;;;;;;4931921;28;20443;-77
2023/05/01 11:29:49;;;;;;;2.83;2.63;;;;;;;;;;4946388;28;20664;-77
2023/05/01 11:32:19;;;;;;;2.72;2.63;;;;;;;;;;4943334;29;21027;-77
2023/05/01 11:34:45;;;;;;;2.80;2.70;;;;;;;;;;4947229;28;20191;-76
2023/05/01 11:37:12;;;;;;;2.90;2.70;;;;;;;;;;4944803;28;20846;-78
2023/05/01 11:39:38;;;;;;;3.00;2.80;;;;;;;;;;4953745;28;20399;-74
2023/05/01 11:42:07;;;;;;;3.17;2.80;;;;;;;;;;4947794;29;20433;-75
2023/05/01 11:44:37;;;;;;;4.13;3.65;;;;;;;;;;4947308;28;20480;-74
2023/05/01 11:47:06;;;;;;;2.90;2.90;;;;;;;;;;4943516;28;20257;-75
2023/05/01 11:49:32;;;;;;;2.10;2.10;;;;;;;;;;4938992;29;20547;-75
2023/05/01 11:51:58;;;;;;;2.10;2.10;;;;;;;;;;4923627;28;20455;-75
2023/05/01 11:54:24;;;;;;;2.83;2.63;;;;;;;;;;4948119;28;20495;-75
2023/05/01 11:57:00;;;;;;;2.20;2.10;;;;;;;;;;4943171;28;20434;-75
2023/05/01 11:59:26;;;;;;;3.43;3.13;;;;;;;;;;4940701;29;20454;-76
2023/05/01 12:01:52;;;;;;;2.23;2.23;;;;;;;;;;4949150;28;20468;-75
2023/05/01 12:04:27;;;;;;;2.80;2.70;;;;;;;;;;4939995;28;20549;-75
2023/05/01 12:06:54;;;;;;;4.97;4.67;;;;;;;;;;4920110;29;20885;-75
2023/05/01 12:09:21;;;;;;;2.40;2.30;;;;;;;;;;4945118;28;20410;-74
2023/05/01 12:11:48;;;;;;;2.50;2.33;;;;;;;;;;4941878;29;20253;-76
2023/05/01 12:14:15;;;;;;;3.63;3.43;;;;;;;;;;4947661;28;20441;-76
2023/05/01 12:16:43;;;;;;;2.10;2.10;;;;;;;;;;4935710;28;20461;-77
2023/05/01 12:19:12;;;;;;;2.93;2.77;;;;;;;;;;4921883;28;20460;-75
2023/05/01 12:21:38;;;;;;;2.30;2.20;;;;;;;;;;4939792;28;20453;-75
2023/05/01 12:24:08;;;;;;;2.50;2.43;;;;;;;;;;4943646;28;20481;-75
2023/05/01 12:26:34;;;;;;;7.80;7.13;;;;;;;;;;4941056;28;20471;-76
2023/05/01 12:29:02;;;;;;;3.00;2.90;;;;;;;;;;4946075;29;20456;-76
2023/05/01 12:31:29;;;;;;;2.80;2.70;;;;;;;;;;4939322;28;20541;-74
2023/05/01 12:34:02;;;;;;;2.20;2.20;;;;;;;;;;4943290;28;20566;-74
2023/05/01 12:36:30;;;;;;;2.40;2.30;;;;;;;;;;4940531;28;20684;-76
2023/05/01 12:39:02;;;;;;;2.03;1.90;;;;;;;;;;4942605;29;20441;-76
2023/05/01 12:41:48;;;;;;;2.37;2.37;;;;;;;;;;4941798;29;20813;-74
2023/05/01 12:44:18;;;;;;;2.77;2.57;;;;;;;;;;4934048;28;20810;-74
2023/05/01 12:46:46;;;;;;;2.13;2.13;;;;;;;;;;4942962;28;20478;-76
2023/05/01 12:49:17;;;;;;;1.63;1.63;;;;;;;;;;4928503;29;20782;-76
2023/05/01 12:51:47;;;;;;;1.80;1.80;;;;;;;;;;4949341;29;20426;-75
2023/05/01 12:54:18;;;;;;;1.73;1.73;;;;;;;;;;4951626;28;20427;-76
2023/05/01 12:56:45;;;;;;;1.80;1.70;;;;;;;;;;4942762;28;20742;-76
2023/05/01 12:59:19;;;;;;;1.47;1.47;;;;;;;;;;4942987;28;20457;-76
2023/05/01 13:01:45;;;;;;;1.50;1.40;;;;;;;;;;4934156;28;20953;-76
2023/05/01 13:04:11;;;;;;;2.10;2.10;;;;;;;;;;4944729;28;20477;-75
2023/05/01 13:06:38;;;;;;;2.80;2.70;;;;;;;;;;4940478;28;20437;-76
2023/05/01 13:09:09;;;;;;;2.47;2.37;;;;;;;;;;4938532;29;20893;-77
2023/05/01 13:11:35;;;;;;;1.77;1.77;;;;;;;;;;4944718;29;20457;-76
2023/05/01 13:14:08;;;;;;;2.10;2.00;;;;;;;;;;4943499;28;20493;-75
2023/05/01 13:16:34;;;;;;;1.90;1.90;;;;;;;;;;4945967;28;20525;-76
2023/05/01 13:19:00;;;;;;;11.90;11.27;;;;;;;;;;4939987;28;20445;-75
2023/05/01 13:21:27;;;;;;;2.53;2.53;;;;;;;;;;4941177;29;20528;-76
2023/05/01 13:24:00;;;;;;;1.70;1.70;;;;;;;;;;4930132;28;20470;-75
2023/05/01 13:26:27;;;;;;;2.00;2.00;;;;;;;;;;4945647;28;20450;-76
2023/05/01 13:28:54;;;;;;;2.67;2.67;;;;;;;;;;4940078;29;20548;-76
2023/05/01 13:31:20;;;;;;;1.90;1.83;;;;;;;;;;4935775;29;20470;-76
2023/05/01 13:33:48;;;;;;;1.63;1.63;;;;;;;;;;4941460;28;20477;-77
2023/05/01 13:36:15;;;;;;;1.80;1.80;;;;;;;;;;4937685;28;20446;-75
2023/05/01 13:38:50;;;;;;;2.30;2.27;;;;;;;;;;4942705;29;20446;-74
2023/05/01 13:41:18;;;;;;;2.23;2.23;;;;;;;;;;4942204;29;20492;-76
2023/05/01 13:43:44;;;;;;;2.30;2.20;;;;;;;;;;4935842;29;20470;-74
2023/05/01 13:46:14;;;;;;;21.63;18.10;;;;;;;;;;4949700;28;20441;-77
2023/05/01 13:48:43;;;;;;;2.83;2.83;;;;;;;;;;4946952;28;20474;-78
2023/05/01 13:51:09;;;;;;;2.30;2.30;;;;;;;;;;4944886;28;20454;-76
2023/05/01 13:53:38;;;;;;;2.60;2.60;;;;;;;;;;4941609;28;20781;-75
2023/05/01 13:56:05;;;;;;;2.00;2.00;;;;;;;;;;4943536;28;20518;-75
2023/05/01 13:58:33;;;;;;;2.37;2.30;;;;;;;;;;4927757;29;20433;-76
2023/05/01 14:01:02;;;;;;;2.00;1.90;;;;;;;;;;4947707;29;20458;-77
2023/05/01 14:03:33;;;;;;;2.30;2.30;;;;;;;;;;4932826;29;20743;-77
2023/05/01 14:06:03;;;;;;;3.10;2.90;;;;;;;;;;4944991;28;20505;-76
2023/05/01 14:08:32;;;;;;;2.07;1.97;;;;;;;;;;4928583;29;20481;-76
2023/05/01 14:10:58;;;;;;;2.43;2.33;;;;;;;;;;4943108;28;20455;-77
2023/05/01 14:13:26;;;;;;;2.03;2.03;;;;;;;;;;4942931;29;20455;-76